createdAt,value
2017-11-29T00:00:10.199Z,4.85
2017-11-29T00:01:12.674Z,5.00
2017-11-29T00:02:15.140Z,5.30
2017-11-29T00:03:17.618Z,5.30
2017-11-29T00:04:20.145Z,5.45
2017-11-29T00:05:22.632Z,4.57
2017-11-29T00:06:25.100Z,4.70
2017-11-29T00:07:28.387Z,5.72
2017-11-29T00:08:30.900Z,5.45
2017-11-29T00:09:33.481Z,5.10
2017-11-29T00:10:37.477Z,5.30
2017-11-29T00:11:40.708Z,4.93
2017-11-29T00:12:43.368Z,5.22
2017-11-29T00:13:45.840Z,4.47
2017-11-29T00:14:49.095Z,5.12
2017-11-29T00:15:51.633Z,5.45
2017-11-29T00:16:54.879Z,5.35
2017-11-29T00:17:58.101Z,5.40
2017-11-29T00:19:00.565Z,5.60
2017-11-29T00:20:03.039Z,5.50
2017-11-29T00:21:05.537Z,5.57
2017-11-29T00:22:08.241Z,5.30
2017-11-29T00:23:11.477Z,5.72
2017-11-29T00:24:14.730Z,5.70
2017-11-29T00:25:17.203Z,5.55
2017-11-29T00:26:19.684Z,5.53
2017-11-29T00:27:22.180Z,5.32
2017-11-29T00:28:25.736Z,5.50
2017-11-29T00:29:28.990Z,5.15
2017-11-29T00:30:32.240Z,5.95
2017-11-29T00:31:34.724Z,5.55
2017-11-29T00:32:37.219Z,5.57
2017-11-29T00:33:39.718Z,5.85
2017-11-29T00:34:42.170Z,5.50
2017-11-29T00:35:44.685Z,5.43
2017-11-29T00:36:47.151Z,5.95
2017-11-29T00:37:49.692Z,5.78
2017-11-29T00:38:52.906Z,5.45
2017-11-29T00:39:55.389Z,5.85
2017-11-29T00:40:57.864Z,5.30
2017-11-29T00:42:00.357Z,5.10
2017-11-29T00:43:02.855Z,5.18
2017-11-29T00:44:05.330Z,5.12
2017-11-29T00:45:07.800Z,5.30
2017-11-29T00:46:10.328Z,5.90
2017-11-29T00:47:12.827Z,5.70
2017-11-29T00:48:15.397Z,5.90
2017-11-29T00:49:17.867Z,5.25
2017-11-29T00:50:20.312Z,5.47
2017-11-29T00:51:23.545Z,5.45
2017-11-29T00:52:26.025Z,5.10
2017-11-29T00:53:28.510Z,6.10
2017-11-29T00:54:31.735Z,5.00
2017-11-29T00:55:34.298Z,5.43
2017-11-29T00:56:36.750Z,5.40
2017-11-29T00:57:39.239Z,5.62
2017-11-29T00:58:41.714Z,5.97
2017-11-29T00:59:44.193Z,5.78
2017-11-29T01:00:46.672Z,5.35
2017-11-29T01:01:49.123Z,5.40
2017-11-29T01:02:52.384Z,5.03
2017-11-29T01:03:54.880Z,5.00
2017-11-29T01:04:57.352Z,5.75
2017-11-29T01:05:59.810Z,5.70
2017-11-29T01:07:02.269Z,4.82
2017-11-29T01:08:05.516Z,5.18
2017-11-29T01:09:08.765Z,5.90
2017-11-29T01:10:12.001Z,5.70
2017-11-29T01:11:15.252Z,5.62
2017-11-29T01:12:17.729Z,5.78
2017-11-29T01:13:20.293Z,5.50
2017-11-29T01:14:23.545Z,5.15
2017-11-29T01:15:26.010Z,5.35
2017-11-29T01:16:28.477Z,5.25
2017-11-29T01:17:31.687Z,5.75
2017-11-29T01:18:34.200Z,5.50
2017-11-29T01:19:36.694Z,5.47
2017-11-29T01:20:39.918Z,5.82
2017-11-29T01:21:43.139Z,5.22
2017-11-29T01:22:45.605Z,5.85
2017-11-29T01:23:48.124Z,6.20
2017-11-29T01:24:50.587Z,5.55
2017-11-29T01:25:53.046Z,5.72
2017-11-29T01:26:56.301Z,5.62
2017-11-29T01:27:59.531Z,5.47
2017-11-29T01:29:02.035Z,4.55
2017-11-29T01:30:04.512Z,5.80
2017-11-29T01:31:06.989Z,5.45
2017-11-29T01:32:09.433Z,6.15
2017-11-29T01:33:12.713Z,5.93
2017-11-29T01:34:15.205Z,5.80
2017-11-29T01:35:18.468Z,6.03
2017-11-29T01:36:20.938Z,6.05
2017-11-29T01:37:23.420Z,6.10
2017-11-29T01:38:25.924Z,5.60
2017-11-29T01:39:29.161Z,5.22
2017-11-29T01:40:32.395Z,5.35
2017-11-29T01:41:34.967Z,5.40
2017-11-29T01:42:37.435Z,5.10
2017-11-29T01:43:39.916Z,5.32
2017-11-29T01:44:42.383Z,5.70
2017-11-29T01:45:44.883Z,5.97
2017-11-29T01:46:48.301Z,5.87
2017-11-29T01:47:50.833Z,6.00
2017-11-29T01:48:53.313Z,6.10
2017-11-29T01:49:55.824Z,5.85
2017-11-29T01:50:58.287Z,5.97
2017-11-29T01:52:01.516Z,5.65
2017-11-29T01:53:04.757Z,6.10
2017-11-29T01:54:08.032Z,5.50
2017-11-29T01:55:10.491Z,5.75
2017-11-29T01:56:12.940Z,6.03
2017-11-29T01:57:15.417Z,5.97
2017-11-29T01:58:17.896Z,6.00
2017-11-29T01:59:21.183Z,6.00
2017-11-29T02:00:23.669Z,6.35
2017-11-29T02:01:26.935Z,6.50
2017-11-29T02:02:29.404Z,6.30
2017-11-29T02:03:32.516Z,6.05
2017-11-29T02:04:34.990Z,5.50
2017-11-29T02:05:37.506Z,5.80
2017-11-29T02:06:40.891Z,6.60
2017-11-29T02:07:43.361Z,6.05
2017-11-29T02:08:45.824Z,6.10
2017-11-29T02:09:49.072Z,6.97
2017-11-29T02:10:52.333Z,6.75
2017-11-29T02:11:54.850Z,6.37
2017-11-29T02:12:58.083Z,6.18
2017-11-29T02:14:01.351Z,6.20
2017-11-29T02:15:03.810Z,5.90
2017-11-29T02:16:06.283Z,6.10
2017-11-29T02:17:08.781Z,5.53
2017-11-29T02:18:11.236Z,6.07
2017-11-29T02:19:14.507Z,5.45
2017-11-29T02:20:17.770Z,6.00
2017-11-29T02:21:20.259Z,5.57
2017-11-29T02:22:22.746Z,6.20
2017-11-29T02:23:25.981Z,6.03
2017-11-29T02:24:28.451Z,5.97
2017-11-29T02:25:30.924Z,6.40
2017-11-29T02:26:33.401Z,5.97
2017-11-29T02:27:35.906Z,6.25
2017-11-29T02:28:39.148Z,6.35
2017-11-29T02:29:43.677Z,5.90
2017-11-29T02:30:46.177Z,6.05
2017-11-29T02:31:48.678Z,5.07
2017-11-29T02:32:51.184Z,6.47
2017-11-29T02:33:54.464Z,6.20
2017-11-29T02:34:56.985Z,5.93
2017-11-29T02:35:59.494Z,6.62
2017-11-29T02:37:02.860Z,6.90
2017-11-29T02:38:05.382Z,6.18
2017-11-29T02:39:07.864Z,6.25
2017-11-29T02:40:22.254Z,6.00
2017-11-29T02:41:36.694Z,5.80
2017-11-29T02:42:41.706Z,6.30
2017-11-29T02:43:44.200Z,5.60
2017-11-29T02:44:46.722Z,5.95
2017-11-29T02:45:49.253Z,6.22
2017-11-29T02:46:51.715Z,6.40
2017-11-29T02:47:54.173Z,5.95
2017-11-29T02:48:57.489Z,6.87
2017-11-29T02:49:59.994Z,6.20
2017-11-29T02:51:02.534Z,6.03
2017-11-29T02:52:05.038Z,6.05
2017-11-29T02:53:07.512Z,5.87
2017-11-29T02:54:10.176Z,6.53
2017-11-29T02:55:12.661Z,6.80
2017-11-29T02:56:15.714Z,5.70
2017-11-29T02:57:18.958Z,5.97
2017-11-29T02:58:21.435Z,6.30
2017-11-29T02:59:24.655Z,6.40
2017-11-29T03:00:27.116Z,6.50
2017-11-29T03:01:29.579Z,6.30
2017-11-29T03:02:32.910Z,6.20
2017-11-29T03:03:35.411Z,6.70
2017-11-29T03:04:37.879Z,5.85
2017-11-29T03:05:40.429Z,6.15
2017-11-29T03:06:42.908Z,5.75
2017-11-29T03:07:45.379Z,6.28
2017-11-29T03:08:47.842Z,6.32
2017-11-29T03:09:50.316Z,6.50
2017-11-29T03:10:53.026Z,5.90
2017-11-29T03:11:56.257Z,6.53
2017-11-29T03:12:59.488Z,6.50
2017-11-29T03:14:02.053Z,6.25
2017-11-29T03:15:04.545Z,6.20
2017-11-29T03:16:07.140Z,6.10
2017-11-29T03:17:09.660Z,6.18
2017-11-29T03:18:12.112Z,5.90
2017-11-29T03:19:14.597Z,6.00
2017-11-29T03:20:17.068Z,6.97
2017-11-29T03:21:21.036Z,7.32
2017-11-29T03:22:23.499Z,6.68
2017-11-29T03:23:25.967Z,6.30
2017-11-29T03:24:28.485Z,6.22
2017-11-29T03:25:30.949Z,6.57
2017-11-29T03:26:34.179Z,6.05
2017-11-29T03:27:37.416Z,6.18
2017-11-29T03:28:39.885Z,6.60
2017-11-29T03:29:42.381Z,6.47
2017-11-29T03:30:45.618Z,6.85
2017-11-29T03:31:48.841Z,6.75
2017-11-29T03:32:51.339Z,6.37
2017-11-29T03:33:53.803Z,6.45
2017-11-29T03:34:56.290Z,7.10
2017-11-29T03:35:58.805Z,7.25
2017-11-29T03:37:01.267Z,7.00
2017-11-29T03:38:03.836Z,7.20
2017-11-29T03:39:06.309Z,7.00
2017-11-29T03:40:08.926Z,6.93
2017-11-29T03:41:11.437Z,6.68
2017-11-29T03:42:13.891Z,7.80
2017-11-29T03:43:16.379Z,6.60
2017-11-29T03:44:18.853Z,7.37
2017-11-29T03:45:22.147Z,6.60
2017-11-29T03:46:25.459Z,6.87
2017-11-29T03:47:28.675Z,6.57
2017-11-29T03:48:31.155Z,7.70
2017-11-29T03:49:33.645Z,7.00
2017-11-29T03:50:37.398Z,6.65
2017-11-29T03:51:40.632Z,7.37
2017-11-29T03:52:43.090Z,7.25
2017-11-29T03:53:45.561Z,7.85
2017-11-29T03:54:48.101Z,7.12
2017-11-29T03:55:50.583Z,7.50
2017-11-29T03:56:53.055Z,8.00
2017-11-29T03:57:55.524Z,7.68
2017-11-29T03:58:57.987Z,7.65
2017-11-29T04:00:00.860Z,7.62
2017-11-29T04:01:07.149Z,7.72
2017-11-29T04:02:10.605Z,7.10
2017-11-29T04:03:13.072Z,7.20
2017-11-29T04:04:15.553Z,7.15
2017-11-29T04:05:18.069Z,6.95
2017-11-29T04:06:20.531Z,7.35
2017-11-29T04:07:23.020Z,6.53
2017-11-29T04:08:25.509Z,7.60
2017-11-29T04:09:28.750Z,6.80
2017-11-29T04:10:31.255Z,7.82
2017-11-29T04:11:33.719Z,7.22
2017-11-29T04:12:36.185Z,6.65
2017-11-29T04:13:39.451Z,7.60
2017-11-29T04:14:41.912Z,7.05
2017-11-29T04:15:44.395Z,7.35
2017-11-29T04:16:46.890Z,7.22
2017-11-29T04:17:49.358Z,7.30
2017-11-29T04:18:51.866Z,7.22
2017-11-29T04:19:54.336Z,6.72
2017-11-29T04:20:56.808Z,7.00
2017-11-29T04:21:59.292Z,7.97
2017-11-29T04:23:01.780Z,7.32
2017-11-29T04:24:04.248Z,6.72
2017-11-29T04:25:06.737Z,6.62
2017-11-29T04:26:09.257Z,6.50
2017-11-29T04:27:11.740Z,6.45
2017-11-29T04:28:14.984Z,7.10
2017-11-29T04:29:18.200Z,6.43
2017-11-29T04:30:20.669Z,6.57
2017-11-29T04:31:23.219Z,7.75
2017-11-29T04:32:25.739Z,7.05
2017-11-29T04:33:28.654Z,7.62
2017-11-29T04:34:31.872Z,7.22
2017-11-29T04:35:35.117Z,7.45
2017-11-29T04:36:37.656Z,6.75
2017-11-29T04:37:40.868Z,6.82
2017-11-29T04:38:43.454Z,6.47
2017-11-29T04:39:46.009Z,7.50
2017-11-29T04:40:48.464Z,6.85
2017-11-29T04:41:51.694Z,7.25
2017-11-29T04:42:54.245Z,6.72
2017-11-29T04:43:57.498Z,7.30
2017-11-29T04:44:59.959Z,7.22
2017-11-29T04:46:02.472Z,7.30
2017-11-29T04:47:04.975Z,7.75
2017-11-29T04:48:07.430Z,6.95
2017-11-29T04:49:09.895Z,7.40
2017-11-29T04:50:12.481Z,7.62
2017-11-29T04:51:14.982Z,7.35
2017-11-29T04:52:17.467Z,6.93
2017-11-29T04:53:19.936Z,7.12
2017-11-29T04:54:22.440Z,7.70
2017-11-29T04:55:25.672Z,8.55
2017-11-29T04:56:28.947Z,7.05
2017-11-29T04:57:31.471Z,6.65
2017-11-29T04:58:33.968Z,7.45
2017-11-29T04:59:37.179Z,7.07
2017-11-29T05:00:39.634Z,7.37
2017-11-29T05:01:43.027Z,7.40
2017-11-29T05:02:45.533Z,7.50
2017-11-29T05:03:48.027Z,6.78
2017-11-29T05:04:51.427Z,7.35
2017-11-29T05:05:53.911Z,7.25
2017-11-29T05:06:56.452Z,7.45
2017-11-29T05:07:58.926Z,6.97
2017-11-29T05:09:01.407Z,8.13
2017-11-29T05:10:03.883Z,7.68
2017-11-29T05:11:06.347Z,8.05
2017-11-29T05:12:08.845Z,7.30
2017-11-29T05:13:11.415Z,7.90
2017-11-29T05:14:13.902Z,7.00
2017-11-29T05:15:17.173Z,7.72
2017-11-29T05:16:19.651Z,8.48
2017-11-29T05:17:22.112Z,6.90
2017-11-29T05:18:24.590Z,7.78
2017-11-29T05:19:27.830Z,7.20
2017-11-29T05:20:30.306Z,7.35
2017-11-29T05:21:32.775Z,7.40
2017-11-29T05:22:35.256Z,8.13
2017-11-29T05:23:37.814Z,7.50
2017-11-29T05:24:40.270Z,7.55
2017-11-29T05:25:42.728Z,7.65
2017-11-29T05:26:45.187Z,7.45
2017-11-29T05:27:47.660Z,7.10
2017-11-29T05:28:50.919Z,7.60
2017-11-29T05:29:53.404Z,8.30
2017-11-29T05:30:56.652Z,7.10
2017-11-29T05:31:59.112Z,7.12
2017-11-29T05:33:01.598Z,7.37
2017-11-29T05:34:05.609Z,7.68
2017-11-29T05:35:08.081Z,8.10
2017-11-29T05:36:15.332Z,7.68
2017-11-29T05:37:18.569Z,8.23
2017-11-29T05:38:21.052Z,7.28
2017-11-29T05:39:23.571Z,8.02
2017-11-29T05:40:26.038Z,7.93
2017-11-29T05:41:28.506Z,7.45
2017-11-29T05:42:30.996Z,8.30
2017-11-29T05:43:33.476Z,7.95
2017-11-29T05:44:35.955Z,8.13
2017-11-29T05:45:38.526Z,7.75
2017-11-29T05:46:41.018Z,7.95
2017-11-29T05:47:44.246Z,8.50
2017-11-29T05:48:47.238Z,7.80
2017-11-29T05:49:49.740Z,7.68
2017-11-29T05:50:52.292Z,7.90
2017-11-29T05:51:54.787Z,7.72
2017-11-29T05:52:57.272Z,8.00
2017-11-29T05:53:59.788Z,7.53
2017-11-29T05:55:02.256Z,8.02
2017-11-29T05:56:04.740Z,9.25
2017-11-29T05:57:07.220Z,7.75
2017-11-29T05:58:10.078Z,8.23
2017-11-29T05:59:12.574Z,7.75
2017-11-29T06:00:15.039Z,8.13
2017-11-29T06:01:17.542Z,8.50
2017-11-29T06:02:20.055Z,8.38
2017-11-29T06:03:23.256Z,8.52
2017-11-29T06:04:25.787Z,8.93
2017-11-29T06:05:29.032Z,9.52
2017-11-29T06:06:32.259Z,8.02
2017-11-29T06:07:34.738Z,8.23
2017-11-29T06:08:37.216Z,8.25
2017-11-29T06:09:40.511Z,8.68
2017-11-29T06:10:42.968Z,8.73
2017-11-29T06:11:46.267Z,9.00
2017-11-29T06:12:48.753Z,8.95
2017-11-29T06:13:51.212Z,9.70
2017-11-29T06:14:53.745Z,9.27
2017-11-29T06:15:56.239Z,10.15
2017-11-29T06:16:59.483Z,11.63
2017-11-29T06:18:02.742Z,11.20
2017-11-29T06:19:05.240Z,10.48
2017-11-29T06:20:07.722Z,11.23
2017-11-29T06:21:10.326Z,10.07
2017-11-29T06:22:12.834Z,12.10
2017-11-29T06:23:16.083Z,11.32
2017-11-29T06:24:19.316Z,11.95
2017-11-29T06:25:22.588Z,11.27
2017-11-29T06:26:25.067Z,11.20
2017-11-29T06:27:29.116Z,9.10
2017-11-29T06:28:31.579Z,10.30
2017-11-29T06:29:34.821Z,10.20
2017-11-29T06:30:37.364Z,9.50
2017-11-29T06:31:39.845Z,9.80
2017-11-29T06:32:42.315Z,9.25
2017-11-29T06:33:44.849Z,9.10
2017-11-29T06:34:47.312Z,8.82
2017-11-29T06:35:51.823Z,9.23
2017-11-29T06:36:54.297Z,9.60
2017-11-29T06:37:56.760Z,9.77
2017-11-29T06:38:59.970Z,9.90
2017-11-29T06:40:03.196Z,9.23
2017-11-29T06:41:05.712Z,9.77
2017-11-29T06:42:08.209Z,9.75
2017-11-29T06:43:10.691Z,9.90
2017-11-29T06:44:13.272Z,9.18
2017-11-29T06:45:15.760Z,10.38
2017-11-29T06:46:19.077Z,9.38
2017-11-29T06:47:21.548Z,10.77
2017-11-29T06:48:24.815Z,9.50
2017-11-29T06:49:27.277Z,10.55
2017-11-29T06:50:31.260Z,9.95
2017-11-29T06:51:34.483Z,10.68
2017-11-29T06:52:36.984Z,10.02
2017-11-29T06:53:39.454Z,10.13
2017-11-29T06:54:42.684Z,10.40
2017-11-29T06:55:45.345Z,10.73
2017-11-29T06:56:47.827Z,9.60
2017-11-29T06:57:50.293Z,10.07
2017-11-29T06:58:52.772Z,9.68
2017-11-29T06:59:55.224Z,10.32
2017-11-29T07:00:58.499Z,10.57
2017-11-29T07:02:00.987Z,9.95
2017-11-29T07:03:04.222Z,10.20
2017-11-29T07:04:07.472Z,10.23
2017-11-29T07:05:10.709Z,9.90
2017-11-29T07:06:13.220Z,10.98
2017-11-29T07:07:15.743Z,9.95
2017-11-29T07:08:18.207Z,10.25
2017-11-29T07:09:20.674Z,10.40
2017-11-29T07:10:23.140Z,10.15
2017-11-29T07:11:26.423Z,10.35
2017-11-29T07:12:28.947Z,10.82
2017-11-29T07:13:31.424Z,10.70
2017-11-29T07:14:33.887Z,10.88
2017-11-29T07:15:36.392Z,9.90
2017-11-29T07:16:38.883Z,10.57
2017-11-29T07:17:41.866Z,10.43
2017-11-29T07:18:44.347Z,9.95
2017-11-29T07:19:46.894Z,10.23
2017-11-29T07:20:50.123Z,10.93
2017-11-29T07:21:52.592Z,10.38
2017-11-29T07:22:55.110Z,10.40
2017-11-29T07:23:57.661Z,10.77
2017-11-29T07:25:00.184Z,10.98
2017-11-29T07:26:02.648Z,10.55
2017-11-29T07:27:05.120Z,9.90
2017-11-29T07:28:07.609Z,11.38
2017-11-29T07:29:10.848Z,10.85
2017-11-29T07:30:13.327Z,10.77
2017-11-29T07:31:15.793Z,10.77
2017-11-29T07:32:18.371Z,10.98
2017-11-29T07:33:20.835Z,10.32
2017-11-29T07:34:23.300Z,10.93
2017-11-29T07:35:25.773Z,10.35
2017-11-29T07:36:28.240Z,11.27
2017-11-29T07:37:31.497Z,11.45
2017-11-29T07:38:33.955Z,10.75
2017-11-29T07:39:36.425Z,10.55
2017-11-29T07:40:39.652Z,11.12
2017-11-29T07:41:42.134Z,11.32
2017-11-29T07:42:44.745Z,10.38
2017-11-29T07:43:47.216Z,10.88
2017-11-29T07:44:49.791Z,10.02
2017-11-29T07:45:52.279Z,11.40
2017-11-29T07:46:54.744Z,11.90
2017-11-29T07:47:57.233Z,11.45
2017-11-29T07:48:59.691Z,11.00
2017-11-29T07:50:02.286Z,11.68
2017-11-29T07:51:05.586Z,11.10
2017-11-29T07:52:08.040Z,11.43
2017-11-29T07:53:10.575Z,10.75
2017-11-29T07:54:13.141Z,11.15
2017-11-29T07:55:15.680Z,11.23
2017-11-29T07:56:18.193Z,11.15
2017-11-29T07:57:20.663Z,11.75
2017-11-29T07:58:23.959Z,12.02
2017-11-29T07:59:26.431Z,11.70
2017-11-29T08:00:29.010Z,11.70
2017-11-29T08:01:31.507Z,12.52
2017-11-29T08:02:33.988Z,11.27
2017-11-29T08:03:36.482Z,12.50
2017-11-29T08:04:38.964Z,11.85
2017-11-29T08:05:41.462Z,11.40
2017-11-29T08:06:44.021Z,11.38
2017-11-29T08:07:46.508Z,10.77
2017-11-29T08:08:49.016Z,11.38
2017-11-29T08:09:51.544Z,11.30
2017-11-29T08:10:54.065Z,10.52
2017-11-29T08:11:56.544Z,12.18
2017-11-29T08:12:59.128Z,11.93
2017-11-29T08:14:01.690Z,11.70
2017-11-29T08:15:04.175Z,11.77
2017-11-29T08:16:07.159Z,11.65
2017-11-29T08:17:09.632Z,11.25
2017-11-29T08:18:12.117Z,11.98
2017-11-29T08:19:14.595Z,12.07
2017-11-29T08:20:17.828Z,12.15
2017-11-29T08:21:20.296Z,12.02
2017-11-29T08:22:22.776Z,11.50
2017-11-29T08:23:25.276Z,12.15
2017-11-29T08:24:28.557Z,11.95
2017-11-29T08:25:31.186Z,11.85
2017-11-29T08:26:33.752Z,11.10
2017-11-29T08:27:36.207Z,11.10
2017-11-29T08:28:39.596Z,11.12
2017-11-29T08:29:42.903Z,11.80
2017-11-29T08:30:45.931Z,10.95
2017-11-29T08:31:49.984Z,11.80
2017-11-29T08:32:57.072Z,11.15
2017-11-29T08:33:59.594Z,11.27
2017-11-29T08:35:02.095Z,11.45
2017-11-29T08:36:04.612Z,11.95
2017-11-29T08:37:07.091Z,12.35
2017-11-29T08:38:10.411Z,10.55
2017-11-29T08:39:12.872Z,11.18
2017-11-29T08:40:15.390Z,10.85
2017-11-29T08:41:17.867Z,11.63
2017-11-29T08:42:21.121Z,11.35
2017-11-29T08:43:23.622Z,11.45
2017-11-29T08:44:26.082Z,11.40
2017-11-29T08:45:28.624Z,11.25
2017-11-29T08:46:31.209Z,11.63
2017-11-29T08:47:33.678Z,11.30
2017-11-29T08:48:36.165Z,11.82
2017-11-29T08:49:38.638Z,10.85
2017-11-29T08:50:41.892Z,10.85
2017-11-29T08:51:44.372Z,11.02
2017-11-29T08:52:46.853Z,11.27
2017-11-29T08:53:50.122Z,12.25
2017-11-29T08:54:52.630Z,11.10
2017-11-29T08:55:55.883Z,12.30
2017-11-29T08:56:58.349Z,11.70
2017-11-29T08:58:00.812Z,11.68
2017-11-29T08:59:04.072Z,11.63
2017-11-29T09:00:06.545Z,12.25
2017-11-29T09:01:09.050Z,12.20
2017-11-29T09:02:11.562Z,12.85
2017-11-29T09:03:14.841Z,12.73
2017-11-29T09:04:17.346Z,13.38
2017-11-29T09:05:19.839Z,12.32
2017-11-29T09:06:22.316Z,11.77
2017-11-29T09:07:24.897Z,13.07
2017-11-29T09:08:27.423Z,13.25
2017-11-29T09:09:29.976Z,13.00
2017-11-29T09:10:32.708Z,12.35
2017-11-29T09:11:35.318Z,12.60
2017-11-29T09:12:37.821Z,12.98
2017-11-29T09:13:40.562Z,13.85
2017-11-29T09:14:43.054Z,12.95
2017-11-29T09:15:45.534Z,12.75
2017-11-29T09:16:48.010Z,12.73
2017-11-29T09:17:50.480Z,12.90
2017-11-29T09:18:52.961Z,13.52
2017-11-29T09:19:55.443Z,13.82
2017-11-29T09:20:57.912Z,12.35
2017-11-29T09:22:01.141Z,13.23
2017-11-29T09:23:04.407Z,12.32
2017-11-29T09:24:07.680Z,13.38
2017-11-29T09:25:10.200Z,12.32
2017-11-29T09:26:12.665Z,11.82
2017-11-29T09:27:15.128Z,13.48
2017-11-29T09:28:18.400Z,12.18
2017-11-29T09:29:20.880Z,14.30
2017-11-29T09:30:23.401Z,13.32
2017-11-29T09:31:25.877Z,12.68
2017-11-29T09:32:28.369Z,13.10
2017-11-29T09:33:31.622Z,12.88
2017-11-29T09:34:34.203Z,12.48
2017-11-29T09:35:36.684Z,12.45
2017-11-29T09:36:39.160Z,13.10
2017-11-29T09:37:41.625Z,12.73
2017-11-29T09:38:44.144Z,12.55
2017-11-29T09:39:47.382Z,12.70
2017-11-29T09:40:50.701Z,12.40
2017-11-29T09:41:53.172Z,13.20
2017-11-29T09:42:55.691Z,13.05
2017-11-29T09:43:58.157Z,13.80
2017-11-29T09:45:00.643Z,13.07
2017-11-29T09:46:03.185Z,12.05
2017-11-29T09:47:05.639Z,13.38
2017-11-29T09:48:08.153Z,13.85
2017-11-29T09:49:10.664Z,14.00
2017-11-29T09:50:13.217Z,12.80
2017-11-29T09:51:15.905Z,12.45
2017-11-29T09:52:18.396Z,11.00
2017-11-29T09:53:21.929Z,13.23
2017-11-29T09:54:24.429Z,12.85
2017-11-29T09:55:26.908Z,12.68
2017-11-29T09:56:30.202Z,13.82
2017-11-29T09:57:33.143Z,12.70
2017-11-29T09:58:35.733Z,13.32
2017-11-29T09:59:38.630Z,13.15
2017-11-29T10:00:41.905Z,13.48
2017-11-29T10:01:44.777Z,12.65
2017-11-29T10:02:47.344Z,14.10
2017-11-29T10:03:50.628Z,13.85
2017-11-29T10:04:53.097Z,13.52
2017-11-29T10:05:55.857Z,13.40
2017-11-29T10:06:58.400Z,12.90
2017-11-29T10:08:00.898Z,12.40
2017-11-29T10:09:04.129Z,13.75
2017-11-29T10:10:06.625Z,12.18
2017-11-29T10:11:09.171Z,12.80
2017-11-29T10:12:12.423Z,13.02
2017-11-29T10:13:15.918Z,12.80
2017-11-29T10:14:18.399Z,12.15
2017-11-29T10:15:21.684Z,12.05
2017-11-29T10:16:24.329Z,13.13
2017-11-29T10:17:33.676Z,12.80
2017-11-29T10:18:36.932Z,13.05
2017-11-29T10:19:39.412Z,12.25
2017-11-29T10:20:41.881Z,12.48
2017-11-29T10:21:44.365Z,13.20
2017-11-29T10:22:47.625Z,12.63
2017-11-29T10:23:50.895Z,12.05
2017-11-29T10:24:53.417Z,12.65
2017-11-29T10:25:55.919Z,13.73
2017-11-29T10:26:59.234Z,13.25
2017-11-29T10:28:01.841Z,12.68
2017-11-29T10:29:04.488Z,12.93
2017-11-29T10:30:06.978Z,12.20
2017-11-29T10:31:09.498Z,12.68
2017-11-29T10:32:12.374Z,11.98
2017-11-29T10:33:15.265Z,12.43
2017-11-29T10:34:17.853Z,13.27
2017-11-29T10:35:21.376Z,12.93
2017-11-29T10:36:23.849Z,12.98
2017-11-29T10:37:27.122Z,11.90
2017-11-29T10:38:29.610Z,10.93
2017-11-29T10:39:32.893Z,12.95
2017-11-29T10:40:35.378Z,12.57
2017-11-29T10:42:53.032Z,12.60
2017-11-29T10:43:56.371Z,12.37
2017-11-29T10:44:59.605Z,12.75
2017-11-29T10:46:02.913Z,12.15
2017-11-29T10:47:06.218Z,12.73
2017-11-29T10:48:08.908Z,13.40
2017-11-29T10:49:11.462Z,13.25
2017-11-29T10:50:13.935Z,13.40
2017-11-29T10:51:17.215Z,12.40
2017-11-29T10:52:21.424Z,13.50
2017-11-29T10:53:23.989Z,12.82
2017-11-29T10:54:26.449Z,12.20
2017-11-29T10:55:29.806Z,12.70
2017-11-29T10:56:32.292Z,13.05
2017-11-29T10:57:35.571Z,12.98
2017-11-29T10:58:38.095Z,12.70
2017-11-29T10:59:40.620Z,12.30
2017-11-29T11:00:43.089Z,11.82
2017-11-29T11:01:45.578Z,12.13
2017-11-29T11:02:49.387Z,13.52
2017-11-29T11:03:51.976Z,13.20
2017-11-29T11:04:54.462Z,11.57
2017-11-29T11:05:57.707Z,11.80
2017-11-29T11:07:00.970Z,13.25
2017-11-29T11:08:03.460Z,13.23
2017-11-29T11:09:06.768Z,11.43
2017-11-29T11:10:09.249Z,12.20
2017-11-29T11:11:11.718Z,12.88
2017-11-29T11:12:14.332Z,12.00
2017-11-29T11:13:16.794Z,12.40
2017-11-29T11:14:19.287Z,12.82
2017-11-29T11:15:21.858Z,12.63
2017-11-29T11:16:25.119Z,13.00
2017-11-29T11:17:27.630Z,12.18
2017-11-29T11:18:30.873Z,12.68
2017-11-29T11:19:34.152Z,12.55
2017-11-29T11:20:36.649Z,11.65
2017-11-29T11:21:39.926Z,12.00
2017-11-29T11:22:42.434Z,13.15
2017-11-29T11:23:44.910Z,12.52
2017-11-29T11:24:47.365Z,12.35
2017-11-29T11:25:50.648Z,13.07
2017-11-29T11:26:53.113Z,12.45
2017-11-29T11:27:55.582Z,12.80
2017-11-29T11:28:58.043Z,12.43
2017-11-29T11:30:00.511Z,12.80
2017-11-29T11:31:03.031Z,12.82
2017-11-29T11:32:06.302Z,13.20
2017-11-29T11:33:08.767Z,12.07
2017-11-29T11:34:11.244Z,11.70
2017-11-29T11:35:13.716Z,12.10
2017-11-29T11:36:16.215Z,11.50
2017-11-29T11:37:18.772Z,12.93
2017-11-29T11:38:21.251Z,11.75
2017-11-29T11:39:23.707Z,12.00
2017-11-29T11:40:26.171Z,13.90
2017-11-29T11:41:29.411Z,12.80
2017-11-29T11:42:32.689Z,12.00
2017-11-29T11:43:35.171Z,11.90
2017-11-29T11:44:38.458Z,11.45
2017-11-29T11:45:40.926Z,12.02
2017-11-29T11:46:43.489Z,12.60
2017-11-29T11:47:45.992Z,12.73
2017-11-29T11:48:49.276Z,11.70
2017-11-29T11:49:51.756Z,11.55
2017-11-29T11:50:54.977Z,11.88
2017-11-29T11:51:58.254Z,11.65
2017-11-29T11:53:01.536Z,11.38
2017-11-29T11:54:04.034Z,12.25
2017-11-29T11:55:06.528Z,10.40
2017-11-29T11:56:09.399Z,11.57
2017-11-29T11:57:11.889Z,12.18
2017-11-29T11:58:15.282Z,11.40
2017-11-29T11:59:17.748Z,11.93
2017-11-29T12:00:20.405Z,11.60
2017-11-29T12:01:22.979Z,12.10
2017-11-29T12:02:25.472Z,10.48
2017-11-29T12:03:27.990Z,11.77
2017-11-29T12:04:31.256Z,11.68
2017-11-29T12:05:33.719Z,10.23
2017-11-29T12:06:36.194Z,11.38
2017-11-29T12:07:38.693Z,11.70
2017-11-29T12:08:42.070Z,11.43
2017-11-29T12:09:44.696Z,11.90
2017-11-29T12:10:48.078Z,11.60
2017-11-29T12:11:50.549Z,10.85
2017-11-29T12:12:53.928Z,11.18
2017-11-29T12:13:56.412Z,11.10
2017-11-29T12:14:59.675Z,11.20
2017-11-29T12:16:02.148Z,11.52
2017-11-29T12:17:04.681Z,11.63
2017-11-29T12:18:07.184Z,11.25
2017-11-29T12:19:09.676Z,10.23
2017-11-29T12:20:12.194Z,10.60
2017-11-29T12:21:15.608Z,10.45
2017-11-29T12:22:18.186Z,11.43
2017-11-29T12:23:20.774Z,11.68
2017-11-29T12:24:24.016Z,11.00
2017-11-29T12:25:27.301Z,11.52
2017-11-29T12:26:29.776Z,10.13
2017-11-29T12:27:32.341Z,9.93
2017-11-29T12:28:34.834Z,11.52
2017-11-29T12:29:38.080Z,9.75
2017-11-29T12:30:41.364Z,11.12
2017-11-29T12:31:43.856Z,10.75
2017-11-29T12:32:47.119Z,10.90
2017-11-29T12:33:49.636Z,10.52
2017-11-29T12:34:52.152Z,11.00
2017-11-29T12:35:55.789Z,10.02
2017-11-29T12:36:58.273Z,10.80
2017-11-29T12:38:00.786Z,10.43
2017-11-29T12:39:03.309Z,10.50
2017-11-29T12:40:05.832Z,9.70
2017-11-29T12:41:08.317Z,10.85
2017-11-29T12:42:10.787Z,10.35
2017-11-29T12:43:13.265Z,10.80
2017-11-29T12:44:15.820Z,10.63
2017-11-29T12:45:18.279Z,10.10
2017-11-29T12:46:20.826Z,9.95
2017-11-29T12:47:23.426Z,9.25
2017-11-29T12:48:37.926Z,10.02
2017-11-29T12:49:52.260Z,10.63
2017-11-29T12:51:21.677Z,10.02
2017-11-29T12:52:24.155Z,10.07
2017-11-29T12:53:27.851Z,10.68
2017-11-29T12:54:31.130Z,9.38
2017-11-29T12:55:34.389Z,10.05
2017-11-29T12:56:37.642Z,8.90
2017-11-29T12:57:40.117Z,10.13
2017-11-29T12:58:42.736Z,9.35
2017-11-29T12:59:45.275Z,9.50
2017-11-29T13:00:47.841Z,9.38
2017-11-29T13:01:50.347Z,10.40
2017-11-29T13:02:53.598Z,10.05
2017-11-29T13:03:56.845Z,10.18
2017-11-29T13:05:00.111Z,9.80
2017-11-29T13:06:02.590Z,9.55
2017-11-29T13:07:05.226Z,8.63
2017-11-29T13:08:07.723Z,9.30
2017-11-29T13:09:10.227Z,9.23
2017-11-29T13:10:12.724Z,9.30
2017-11-29T13:11:15.221Z,9.27
2017-11-29T13:12:18.500Z,10.13
2017-11-29T13:13:20.979Z,9.15
2017-11-29T13:14:23.474Z,9.05
2017-11-29T13:15:25.979Z,9.13
2017-11-29T13:16:28.463Z,9.38
2017-11-29T13:17:32.255Z,9.35
2017-11-29T13:18:34.780Z,9.95
2017-11-29T13:19:37.255Z,9.88
2017-11-29T13:20:39.765Z,9.73
2017-11-29T13:21:42.227Z,10.02
2017-11-29T13:22:45.507Z,9.50
2017-11-29T13:23:47.976Z,9.20
2017-11-29T13:24:50.479Z,8.90
2017-11-29T13:25:53.013Z,8.65
2017-11-29T13:26:55.485Z,9.38
2017-11-29T13:27:58.720Z,8.30
2017-11-29T13:29:01.958Z,8.90
2017-11-29T13:30:04.411Z,8.93
2017-11-29T13:31:06.889Z,8.45
2017-11-29T13:32:09.462Z,7.82
2017-11-29T13:33:11.934Z,8.65
2017-11-29T13:34:14.425Z,9.07
2017-11-29T13:35:16.912Z,8.95
2017-11-29T13:36:20.161Z,8.70
2017-11-29T13:37:23.400Z,8.30
2017-11-29T13:38:26.635Z,8.70
2017-11-29T13:39:29.918Z,8.48
2017-11-29T13:40:32.391Z,8.30
2017-11-29T13:41:34.875Z,10.15
2017-11-29T13:42:37.371Z,9.05
2017-11-29T13:43:39.857Z,10.70
2017-11-29T13:44:42.344Z,9.95